sensor_id;sensor_type;location;lat;lon;timestamp;P1;durP1;ratioP1;P2;durP2;ratioP2
9950;SDS011;24074;49.254;6.702;2023-08-01T00:02:26;9.27;;;5.33;;
9950;SDS011;24074;49.254;6.702;2023-08-01T00:04:51;10.33;;;6.20;;
9950;SDS011;24074;49.254;6.702;2023-08-01T00:07:17;11.43;;;6.40;;
9950;SDS011;24074;49.254;6.702;2023-08-01T00:09:42;9.73;;;5.73;;
9950;SDS011;24074;49.254;6.702;2023-08-01T00:12:08;8.97;;;5.90;;
9950;SDS011;24074;49.254;6.702;2023-08-01T00:14:35;12.27;;;5.80;;
9950;SDS011;24074;49.254;6.702;2023-08-01T00:17:01;10.07;;;6.40;;
9950;SDS011;24074;49.254;6.702;2023-08-01T00:19:27;9.80;;;5.97;;
9950;SDS011;24074;49.254;6.702;2023-08-01T00:21:53;9.83;;;6.17;;
9950;SDS011;24074;49.254;6.702;2023-08-01T00:24:18;11.87;;;5.83;;
9950;SDS011;24074;49.254;6.702;2023-08-01T00:26:44;10.07;;;5.63;;
9950;SDS011;24074;49.254;6.702;2023-08-01T00:29:09;11.63;;;5.63;;
9950;SDS011;24074;49.254;6.702;2023-08-01T00:31:35;8.83;;;5.47;;
9950;SDS011;24074;49.254;6.702;2023-08-01T00:34:00;9.50;;;5.97;;
9950;SDS011;24074;49.254;6.702;2023-08-01T00:36:26;8.73;;;5.73;;
9950;SDS011;24074;49.254;6.702;2023-08-01T00:38:51;8.07;;;5.10;;
9950;SDS011;24074;49.254;6.702;2023-08-01T00:41:17;11.53;;;5.90;;
9950;SDS011;24074;49.254;6.702;2023-08-01T00:43:43;8.83;;;6.07;;
9950;SDS011;24074;49.254;6.702;2023-08-01T00:46:08;8.53;;;6.30;;
9950;SDS011;24074;49.254;6.702;2023-08-01T00:48:35;10.43;;;5.90;;
9950;SDS011;24074;49.254;6.702;2023-08-01T00:51:01;8.97;;;5.43;;
9950;SDS011;24074;49.254;6.702;2023-08-01T00:53:30;11.67;;;5.77;;
9950;SDS011;24074;49.254;6.702;2023-08-01T00:55:56;8.30;;;5.83;;
9950;SDS011;24074;49.254;6.702;2023-08-01T00:58:22;10.73;;;6.07;;
9950;SDS011;24074;49.254;6.702;2023-08-01T01:00:48;10.00;;;5.80;;
9950;SDS011;24074;49.254;6.702;2023-08-01T01:03:14;11.43;;;6.03;;
9950;SDS011;24074;49.254;6.702;2023-08-01T01:05:42;11.63;;;5.63;;
9950;SDS011;24074;49.254;6.702;2023-08-01T01:08:13;11.50;;;5.73;;
9950;SDS011;24074;49.254;6.702;2023-08-01T01:10:39;7.80;;;5.60;;
9950;SDS011;24074;49.254;6.702;2023-08-01T01:13:04;10.47;;;5.47;;
9950;SDS011;24074;49.254;6.702;2023-08-01T01:15:30;13.00;;;6.03;;
9950;SDS011;24074;49.254;6.702;2023-08-01T01:17:56;10.70;;;5.70;;
9950;SDS011;24074;49.254;6.702;2023-08-01T01:20:25;8.53;;;5.20;;
9950;SDS011;24074;49.254;6.702;2023-08-01T01:22:53;8.13;;;5.50;;
9950;SDS011;24074;49.254;6.702;2023-08-01T01:25:20;8.83;;;5.77;;
9950;SDS011;24074;49.254;6.702;2023-08-01T01:27:47;10.13;;;5.73;;
9950;SDS011;24074;49.254;6.702;2023-08-01T01:30:14;10.50;;;5.60;;
9950;SDS011;24074;49.254;6.702;2023-08-01T01:32:40;9.37;;;5.67;;
9950;SDS011;24074;49.254;6.702;2023-08-01T01:35:06;10.40;;;6.00;;
9950;SDS011;24074;49.254;6.702;2023-08-01T01:37:32;6.90;;;5.17;;
9950;SDS011;24074;49.254;6.702;2023-08-01T01:39:57;10.93;;;6.07;;
9950;SDS011;24074;49.254;6.702;2023-08-01T01:42:23;8.33;;;5.57;;
9950;SDS011;24074;49.254;6.702;2023-08-01T01:44:49;8.77;;;5.07;;
9950;SDS011;24074;49.254;6.702;2023-08-01T01:47:14;9.30;;;5.73;;
9950;SDS011;24074;49.254;6.702;2023-08-01T01:49:40;7.17;;;4.70;;
9950;SDS011;24074;49.254;6.702;2023-08-01T01:52:05;8.13;;;5.00;;
9950;SDS011;24074;49.254;6.702;2023-08-01T01:54:31;9.83;;;5.17;;
9950;SDS011;24074;49.254;6.702;2023-08-01T01:56:56;5.93;;;4.57;;
9950;SDS011;24074;49.254;6.702;2023-08-01T01:59:22;5.80;;;4.80;;
9950;SDS011;24074;49.254;6.702;2023-08-01T02:01:48;8.73;;;4.93;;
9950;SDS011;24074;49.254;6.702;2023-08-01T02:04:13;6.97;;;4.50;;
9950;SDS011;24074;49.254;6.702;2023-08-01T02:06:39;10.03;;;4.77;;
9950;SDS011;24074;49.254;6.702;2023-08-01T02:09:04;8.20;;;4.40;;
9950;SDS011;24074;49.254;6.702;2023-08-01T02:11:30;9.03;;;4.60;;
9950;SDS011;24074;49.254;6.702;2023-08-01T02:13:55;7.73;;;4.20;;
9950;SDS011;24074;49.254;6.702;2023-08-01T02:16:21;10.20;;;4.50;;
9950;SDS011;24074;49.254;6.702;2023-08-01T02:18:47;7.47;;;4.47;;
9950;SDS011;24074;49.254;6.702;2023-08-01T02:21:12;5.10;;;3.87;;
9950;SDS011;24074;49.254;6.702;2023-08-01T02:23:41;5.77;;;4.03;;
9950;SDS011;24074;49.254;6.702;2023-08-01T02:26:06;5.50;;;3.80;;
9950;SDS011;24074;49.254;6.702;2023-08-01T02:28:33;5.37;;;4.10;;
9950;SDS011;24074;49.254;6.702;2023-08-01T02:30:58;6.80;;;4.20;;
9950;SDS011;24074;49.254;6.702;2023-08-01T02:33:24;6.47;;;4.30;;
9950;SDS011;24074;49.254;6.702;2023-08-01T02:35:50;6.57;;;4.10;;
9950;SDS011;24074;49.254;6.702;2023-08-01T02:38:15;6.20;;;4.00;;
9950;SDS011;24074;49.254;6.702;2023-08-01T02:40:41;6.40;;;3.90;;
9950;SDS011;24074;49.254;6.702;2023-08-01T02:43:06;8.57;;;4.27;;
9950;SDS011;24074;49.254;6.702;2023-08-01T02:45:32;5.67;;;3.70;;
9950;SDS011;24074;49.254;6.702;2023-08-01T02:47:57;7.13;;;3.37;;
9950;SDS011;24074;49.254;6.702;2023-08-01T02:50:23;6.13;;;3.63;;
9950;SDS011;24074;49.254;6.702;2023-08-01T02:52:48;6.80;;;3.73;;
9950;SDS011;24074;49.254;6.702;2023-08-01T02:55:14;8.07;;;4.10;;
9950;SDS011;24074;49.254;6.702;2023-08-01T02:57:39;7.87;;;4.00;;
9950;SDS011;24074;49.254;6.702;2023-08-01T03:00:05;7.50;;;4.23;;
9950;SDS011;24074;49.254;6.702;2023-08-01T03:02:36;6.03;;;4.20;;
9950;SDS011;24074;49.254;6.702;2023-08-01T03:05:02;6.37;;;4.10;;
9950;SDS011;24074;49.254;6.702;2023-08-01T03:07:29;6.17;;;3.97;;
9950;SDS011;24074;49.254;6.702;2023-08-01T03:09:55;6.93;;;4.60;;
9950;SDS011;24074;49.254;6.702;2023-08-01T03:12:21;5.70;;;4.27;;
9950;SDS011;24074;49.254;6.702;2023-08-01T03:14:49;9.10;;;4.73;;
9950;SDS011;24074;49.254;6.702;2023-08-01T03:17:14;6.47;;;4.90;;
9950;SDS011;24074;49.254;6.702;2023-08-01T03:19:40;8.57;;;4.73;;
9950;SDS011;24074;49.254;6.702;2023-08-01T03:22:06;6.37;;;4.93;;
9950;SDS011;24074;49.254;6.702;2023-08-01T03:24:32;8.20;;;5.10;;
9950;SDS011;24074;49.254;6.702;2023-08-01T03:26:58;8.70;;;5.03;;
9950;SDS011;24074;49.254;6.702;2023-08-01T03:29:23;6.10;;;4.70;;
9950;SDS011;24074;49.254;6.702;2023-08-01T03:31:49;7.70;;;4.93;;
9950;SDS011;24074;49.254;6.702;2023-08-01T03:34:14;5.83;;;4.60;;
9950;SDS011;24074;49.254;6.702;2023-08-01T03:36:40;8.23;;;5.07;;
9950;SDS011;24074;49.254;6.702;2023-08-01T03:39:05;7.20;;;4.77;;
9950;SDS011;24074;49.254;6.702;2023-08-01T03:41:32;8.67;;;4.87;;
9950;SDS011;24074;49.254;6.702;2023-08-01T03:43:57;7.27;;;5.00;;
9950;SDS011;24074;49.254;6.702;2023-08-01T03:46:23;7.73;;;4.90;;
9950;SDS011;24074;49.254;6.702;2023-08-01T03:48:49;7.57;;;5.13;;
9950;SDS011;24074;49.254;6.702;2023-08-01T03:51:14;6.63;;;4.73;;
9950;SDS011;24074;49.254;6.702;2023-08-01T03:53:40;6.17;;;4.90;;
9950;SDS011;24074;49.254;6.702;2023-08-01T03:56:07;6.50;;;4.97;;
9950;SDS011;24074;49.254;6.702;2023-08-01T03:58:32;7.77;;;4.93;;
9950;SDS011;24074;49.254;6.702;2023-08-01T04:00:58;6.77;;;4.83;;
9950;SDS011;24074;49.254;6.702;2023-08-01T04:03:23;6.00;;;4.93;;
9950;SDS011;24074;49.254;6.702;2023-08-01T04:05:49;10.20;;;5.20;;
9950;SDS011;24074;49.254;6.702;2023-08-01T04:08:14;8.13;;;5.23;;
9950;SDS011;24074;49.254;6.702;2023-08-01T04:10:40;6.33;;;4.53;;
9950;SDS011;24074;49.254;6.702;2023-08-01T04:13:06;8.97;;;5.20;;
9950;SDS011;24074;49.254;6.702;2023-08-01T04:15:31;5.97;;;4.77;;
9950;SDS011;24074;49.254;6.702;2023-08-01T04:17:57;7.93;;;4.87;;
9950;SDS011;24074;49.254;6.702;2023-08-01T04:20:22;6.40;;;5.33;;
9950;SDS011;24074;49.254;6.702;2023-08-01T04:22:48;7.60;;;5.17;;
9950;SDS011;24074;49.254;6.702;2023-08-01T04:25:13;6.07;;;5.00;;
9950;SDS011;24074;49.254;6.702;2023-08-01T04:27:39;7.03;;;4.77;;
9950;SDS011;24074;49.254;6.702;2023-08-01T04:30:05;7.27;;;5.00;;
9950;SDS011;24074;49.254;6.702;2023-08-01T04:32:31;7.07;;;4.90;;
9950;SDS011;24074;49.254;6.702;2023-08-01T04:34:56;7.60;;;5.47;;
9950;SDS011;24074;49.254;6.702;2023-08-01T04:37:22;7.00;;;4.80;;
9950;SDS011;24074;49.254;6.702;2023-08-01T04:39:48;7.20;;;4.73;;
9950;SDS011;24074;49.254;6.702;2023-08-01T04:42:14;5.97;;;4.17;;
9950;SDS011;24074;49.254;6.702;2023-08-01T04:44:39;5.50;;;4.17;;
9950;SDS011;24074;49.254;6.702;2023-08-01T04:47:05;6.17;;;4.20;;
9950;SDS011;24074;49.254;6.702;2023-08-01T04:49:30;6.37;;;4.33;;
9950;SDS011;24074;49.254;6.702;2023-08-01T04:51:56;6.33;;;3.77;;
9950;SDS011;24074;49.254;6.702;2023-08-01T04:54:22;5.87;;;3.83;;
9950;SDS011;24074;49.254;6.702;2023-08-01T04:56:47;4.00;;;3.10;;
9950;SDS011;24074;49.254;6.702;2023-08-01T04:59:13;5.03;;;3.30;;
9950;SDS011;24074;49.254;6.702;2023-08-01T05:01:38;4.40;;;3.47;;
9950;SDS011;24074;49.254;6.702;2023-08-01T05:04:04;4.63;;;3.40;;
9950;SDS011;24074;49.254;6.702;2023-08-01T05:06:29;3.70;;;2.60;;
9950;SDS011;24074;49.254;6.702;2023-08-01T05:08:55;5.77;;;2.80;;
9950;SDS011;24074;49.254;6.702;2023-08-01T05:11:20;3.07;;;2.70;;
9950;SDS011;24074;49.254;6.702;2023-08-01T05:13:46;4.77;;;2.90;;
9950;SDS011;24074;49.254;6.702;2023-08-01T05:16:12;3.67;;;2.10;;
9950;SDS011;24074;49.254;6.702;2023-08-01T05:18:37;3.57;;;2.67;;
9950;SDS011;24074;49.254;6.702;2023-08-01T05:21:03;2.30;;;1.93;;
9950;SDS011;24074;49.254;6.702;2023-08-01T05:23:29;4.67;;;2.30;;
9950;SDS011;24074;49.254;6.702;2023-08-01T05:25:54;3.23;;;2.03;;
9950;SDS011;24074;49.254;6.702;2023-08-01T05:28:20;1.67;;;1.50;;
9950;SDS011;24074;49.254;6.702;2023-08-01T05:30:45;3.00;;;2.10;;
9950;SDS011;24074;49.254;6.702;2023-08-01T05:33:12;2.53;;;1.60;;
9950;SDS011;24074;49.254;6.702;2023-08-01T05:35:37;2.20;;;1.20;;
9950;SDS011;24074;49.254;6.702;2023-08-01T05:38:03;3.43;;;1.07;;
9950;SDS011;24074;49.254;6.702;2023-08-01T05:40:28;1.10;;;0.90;;
9950;SDS011;24074;49.254;6.702;2023-08-01T05:42:54;1.10;;;0.90;;
9950;SDS011;24074;49.254;6.702;2023-08-01T05:45:20;2.83;;;1.23;;
9950;SDS011;24074;49.254;6.702;2023-08-01T05:47:45;2.97;;;1.10;;
9950;SDS011;24074;49.254;6.702;2023-08-01T05:50:11;1.93;;;0.83;;
9950;SDS011;24074;49.254;6.702;2023-08-01T05:52:37;1.83;;;1.03;;
9950;SDS011;24074;49.254;6.702;2023-08-01T05:55:02;0.70;;;0.70;;
9950;SDS011;24074;49.254;6.702;2023-08-01T05:57:29;1.50;;;0.90;;
9950;SDS011;24074;49.254;6.702;2023-08-01T05:59:54;2.07;;;0.93;;
9950;SDS011;24074;49.254;6.702;2023-08-01T06:02:20;0.80;;;0.80;;
9950;SDS011;24074;49.254;6.702;2023-08-01T06:04:45;0.97;;;0.67;;
9950;SDS011;24074;49.254;6.702;2023-08-01T06:07:11;0.50;;;0.50;;
9950;SDS011;24074;49.254;6.702;2023-08-01T06:09:37;1.53;;;0.70;;
9950;SDS011;24074;49.254;6.702;2023-08-01T06:12:02;1.03;;;0.60;;
9950;SDS011;24074;49.254;6.702;2023-08-01T06:14:28;0.73;;;0.60;;
9950;SDS011;24074;49.254;6.702;2023-08-01T06:16:54;0.70;;;0.70;;
9950;SDS011;24074;49.254;6.702;2023-08-01T06:19:19;1.13;;;0.70;;
9950;SDS011;24074;49.254;6.702;2023-08-01T06:21:45;1.37;;;0.60;;
9950;SDS011;24074;49.254;6.702;2023-08-01T06:24:10;0.80;;;0.80;;
9950;SDS011;24074;49.254;6.702;2023-08-01T06:26:36;0.57;;;0.57;;
9950;SDS011;24074;49.254;6.702;2023-08-01T06:29:02;0.90;;;0.70;;
9950;SDS011;24074;49.254;6.702;2023-08-01T06:31:27;1.40;;;0.90;;
9950;SDS011;24074;49.254;6.702;2023-08-01T06:33:53;1.00;;;0.70;;
9950;SDS011;24074;49.254;6.702;2023-08-01T06:36:18;0.70;;;0.70;;
9950;SDS011;24074;49.254;6.702;2023-08-01T06:38:44;1.13;;;0.73;;
9950;SDS011;24074;49.254;6.702;2023-08-01T06:41:09;0.73;;;0.73;;
9950;SDS011;24074;49.254;6.702;2023-08-01T06:43:35;0.90;;;0.70;;
9950;SDS011;24074;49.254;6.702;2023-08-01T06:46:03;1.70;;;0.67;;
9950;SDS011;24074;49.254;6.702;2023-08-01T06:48:30;0.60;;;0.60;;
9950;SDS011;24074;49.254;6.702;2023-08-01T06:50:56;0.87;;;0.70;;
9950;SDS011;24074;49.254;6.702;2023-08-01T06:53:22;2.00;;;0.77;;
9950;SDS011;24074;49.254;6.702;2023-08-01T06:55:48;1.40;;;0.80;;
9950;SDS011;24074;49.254;6.702;2023-08-01T06:58:13;0.70;;;0.70;;
9950;SDS011;24074;49.254;6.702;2023-08-01T07:00:39;2.60;;;0.90;;
9950;SDS011;24074;49.254;6.702;2023-08-01T07:03:04;1.00;;;0.90;;
9950;SDS011;24074;49.254;6.702;2023-08-01T07:05:30;0.80;;;0.80;;
9950;SDS011;24074;49.254;6.702;2023-08-01T07:07:55;1.00;;;0.90;;
9950;SDS011;24074;49.254;6.702;2023-08-01T07:10:23;0.80;;;0.80;;
9950;SDS011;24074;49.254;6.702;2023-08-01T07:12:48;0.93;;;0.80;;
9950;SDS011;24074;49.254;6.702;2023-08-01T07:15:14;1.43;;;0.90;;
9950;SDS011;24074;49.254;6.702;2023-08-01T07:17:39;0.90;;;0.80;;
9950;SDS011;24074;49.254;6.702;2023-08-01T07:20:05;1.87;;;1.10;;
9950;SDS011;24074;49.254;6.702;2023-08-01T07:22:31;1.30;;;1.10;;
9950;SDS011;24074;49.254;6.702;2023-08-01T07:24:56;1.43;;;0.90;;
9950;SDS011;24074;49.254;6.702;2023-08-01T07:27:22;0.93;;;0.87;;
9950;SDS011;24074;49.254;6.702;2023-08-01T07:29:47;1.90;;;1.07;;
9950;SDS011;24074;49.254;6.702;2023-08-01T07:32:14;1.47;;;1.27;;
9950;SDS011;24074;49.254;6.702;2023-08-01T07:34:39;1.40;;;1.00;;
9950;SDS011;24074;49.254;6.702;2023-08-01T07:37:05;2.50;;;1.30;;
9950;SDS011;24074;49.254;6.702;2023-08-01T07:39:31;1.83;;;1.23;;
9950;SDS011;24074;49.254;6.702;2023-08-01T07:41:56;1.83;;;1.30;;
9950;SDS011;24074;49.254;6.702;2023-08-01T07:44:22;1.67;;;1.20;;
9950;SDS011;24074;49.254;6.702;2023-08-01T07:46:48;1.97;;;1.23;;
9950;SDS011;24074;49.254;6.702;2023-08-01T07:49:13;3.53;;;1.60;;
9950;SDS011;24074;49.254;6.702;2023-08-01T07:51:39;2.85;;;1.50;;
9950;SDS011;24074;49.254;6.702;2023-08-01T07:54:04;2.05;;;1.40;;
9950;SDS011;24074;49.254;6.702;2023-08-01T07:56:30;4.25;;;1.90;;
9950;SDS011;24074;49.254;6.702;2023-08-01T07:58:55;5.85;;;1.60;;
9950;SDS011;24074;49.254;6.702;2023-08-01T08:01:21;2.72;;;1.52;;
9950;SDS011;24074;49.254;6.702;2023-08-01T08:03:47;3.05;;;1.58;;
9950;SDS011;24074;49.254;6.702;2023-08-01T08:06:12;2.75;;;1.45;;
9950;SDS011;24074;49.254;6.702;2023-08-01T08:08:38;2.08;;;1.63;;
9950;SDS011;24074;49.254;6.702;2023-08-01T08:11:04;2.58;;;1.67;;
9950;SDS011;24074;49.254;6.702;2023-08-01T08:13:29;2.00;;;1.73;;
9950;SDS011;24074;49.254;6.702;2023-08-01T08:15:56;2.95;;;1.85;;
9950;SDS011;24074;49.254;6.702;2023-08-01T08:18:22;2.42;;;1.67;;
9950;SDS011;24074;49.254;6.702;2023-08-01T08:20:48;2.80;;;1.80;;
9950;SDS011;24074;49.254;6.702;2023-08-01T08:23:13;1.95;;;1.75;;
9950;SDS011;24074;49.254;6.702;2023-08-01T08:25:39;4.57;;;1.70;;
9950;SDS011;24074;49.254;6.702;2023-08-01T08:28:06;2.97;;;2.00;;
9950;SDS011;24074;49.254;6.702;2023-08-01T08:30:31;3.03;;;1.83;;
9950;SDS011;24074;49.254;6.702;2023-08-01T08:32:57;4.68;;;1.52;;
9950;SDS011;24074;49.254;6.702;2023-08-01T08:35:25;3.05;;;1.90;;
9950;SDS011;24074;49.254;6.702;2023-08-01T08:37:51;4.43;;;2.08;;
9950;SDS011;24074;49.254;6.702;2023-08-01T08:40:16;3.45;;;1.70;;
9950;SDS011;24074;49.254;6.702;2023-08-01T08:42:42;1.90;;;1.60;;
9950;SDS011;24074;49.254;6.702;2023-08-01T08:45:09;2.78;;;1.70;;
9950;SDS011;24074;49.254;6.702;2023-08-01T08:47:38;3.30;;;1.75;;
9950;SDS011;24074;49.254;6.702;2023-08-01T08:50:09;2.20;;;1.80;;
9950;SDS011;24074;49.254;6.702;2023-08-01T08:52:36;2.17;;;1.80;;
9950;SDS011;24074;49.254;6.702;2023-08-01T08:55:03;2.92;;;1.70;;
9950;SDS011;24074;49.254;6.702;2023-08-01T08:57:30;3.70;;;1.75;;
9950;SDS011;24074;49.254;6.702;2023-08-01T08:59:56;2.75;;;1.70;;
9950;SDS011;24074;49.254;6.702;2023-08-01T09:02:23;3.00;;;1.65;;
9950;SDS011;24074;49.254;6.702;2023-08-01T09:04:49;2.70;;;1.70;;
9950;SDS011;24074;49.254;6.702;2023-08-01T09:07:15;3.00;;;1.70;;
9950;SDS011;24074;49.254;6.702;2023-08-01T09:09:44;3.10;;;1.77;;
9950;SDS011;24074;49.254;6.702;2023-08-01T09:12:10;2.28;;;1.70;;
9950;SDS011;24074;49.254;6.702;2023-08-01T09:14:36;2.30;;;1.65;;
9950;SDS011;24074;49.254;6.702;2023-08-01T09:17:06;2.00;;;1.80;;
9950;SDS011;24074;49.254;6.702;2023-08-01T09:19:33;2.45;;;1.63;;
9950;SDS011;24074;49.254;6.702;2023-08-01T09:21:58;2.20;;;1.73;;
9950;SDS011;24074;49.254;6.702;2023-08-01T09:24:24;4.45;;;1.95;;
9950;SDS011;24074;49.254;6.702;2023-08-01T09:26:49;2.78;;;1.90;;
9950;SDS011;24074;49.254;6.702;2023-08-01T09:29:16;3.42;;;1.77;;
9950;SDS011;24074;49.254;6.702;2023-08-01T09:31:42;2.22;;;1.65;;
9950;SDS011;24074;49.254;6.702;2023-08-01T09:37:03;2.60;;;1.77;;
9950;SDS011;24074;49.254;6.702;2023-08-01T09:39:29;2.55;;;1.60;;
9950;SDS011;24074;49.254;6.702;2023-08-01T09:41:58;3.13;;;2.03;;
9950;SDS011;24074;49.254;6.702;2023-08-01T09:44:25;3.55;;;1.73;;
9950;SDS011;24074;49.254;6.702;2023-08-01T09:46:56;2.37;;;1.77;;
9950;SDS011;24074;49.254;6.702;2023-08-01T09:49:26;2.10;;;1.80;;
9950;SDS011;24074;49.254;6.702;2023-08-01T09:51:53;4.33;;;1.83;;
9950;SDS011;24074;49.254;6.702;2023-08-01T09:54:20;2.03;;;1.50;;
9950;SDS011;24074;49.254;6.702;2023-08-01T09:56:47;3.17;;;1.80;;
9950;SDS011;24074;49.254;6.702;2023-08-01T09:59:18;4.00;;;1.60;;
9950;SDS011;24074;49.254;6.702;2023-08-01T10:01:45;2.03;;;1.70;;
9950;SDS011;24074;49.254;6.702;2023-08-01T10:04:17;3.80;;;2.00;;
9950;SDS011;24074;49.254;6.702;2023-08-01T10:06:46;2.60;;;2.00;;
9950;SDS011;24074;49.254;6.702;2023-08-01T10:09:17;2.78;;;1.98;;
9950;SDS011;24074;49.254;6.702;2023-08-01T10:11:44;2.33;;;1.87;;
9950;SDS011;24074;49.254;6.702;2023-08-01T10:14:10;2.87;;;1.73;;
9950;SDS011;24074;49.254;6.702;2023-08-01T10:16:36;2.87;;;1.80;;
9950;SDS011;24074;49.254;6.702;2023-08-01T10:19:02;2.73;;;1.90;;
9950;SDS011;24074;49.254;6.702;2023-08-01T10:21:32;3.07;;;1.87;;
9950;SDS011;24074;49.254;6.702;2023-08-01T10:23:58;2.90;;;1.90;;
9950;SDS011;24074;49.254;6.702;2023-08-01T10:26:24;2.23;;;1.67;;
9950;SDS011;24074;49.254;6.702;2023-08-01T10:28:50;3.13;;;2.17;;
9950;SDS011;24074;49.254;6.702;2023-08-01T10:31:17;4.07;;;2.30;;
9950;SDS011;24074;49.254;6.702;2023-08-01T10:33:45;4.40;;;2.00;;
9950;SDS011;24074;49.254;6.702;2023-08-01T10:36:21;3.90;;;1.80;;
9950;SDS011;24074;49.254;6.702;2023-08-01T10:43:47;3.90;;;2.03;;
9950;SDS011;24074;49.254;6.702;2023-08-01T10:46:12;2.53;;;2.03;;
9950;SDS011;24074;49.254;6.702;2023-08-01T10:48:48;3.87;;;1.83;;
9950;SDS011;24074;49.254;6.702;2023-08-01T10:51:18;2.37;;;1.70;;
9950;SDS011;24074;49.254;6.702;2023-08-01T10:53:44;5.27;;;2.07;;
9950;SDS011;24074;49.254;6.702;2023-08-01T10:56:17;3.00;;;1.80;;
9950;SDS011;24074;49.254;6.702;2023-08-01T10:58:43;2.50;;;1.87;;
9950;SDS011;24074;49.254;6.702;2023-08-01T11:01:09;3.47;;;2.00;;
9950;SDS011;24074;49.254;6.702;2023-08-01T11:03:36;3.53;;;2.00;;
9950;SDS011;24074;49.254;6.702;2023-08-01T11:06:02;3.27;;;2.10;;
9950;SDS011;24074;49.254;6.702;2023-08-01T11:08:38;3.70;;;1.80;;
9950;SDS011;24074;49.254;6.702;2023-08-01T11:11:05;2.77;;;2.10;;
9950;SDS011;24074;49.254;6.702;2023-08-01T11:13:33;2.60;;;2.00;;
9950;SDS011;24074;49.254;6.702;2023-08-01T11:16:01;2.90;;;1.93;;
9950;SDS011;24074;49.254;6.702;2023-08-01T11:18:39;3.23;;;1.90;;
9950;SDS011;24074;49.254;6.702;2023-08-01T11:21:08;2.60;;;1.87;;
9950;SDS011;24074;49.254;6.702;2023-08-01T11:23:34;2.60;;;1.80;;
9950;SDS011;24074;49.254;6.702;2023-08-01T11:26:01;3.20;;;1.90;;
9950;SDS011;24074;49.254;6.702;2023-08-01T11:28:33;1.90;;;1.80;;
9950;SDS011;24074;49.254;6.702;2023-08-01T11:30:59;2.47;;;2.08;;
9950;SDS011;24074;49.254;6.702;2023-08-01T11:33:24;3.03;;;1.97;;
9950;SDS011;24074;49.254;6.702;2023-08-01T11:35:54;2.70;;;1.80;;
9950;SDS011;24074;49.254;6.702;2023-08-01T11:38:25;2.77;;;1.70;;
9950;SDS011;24074;49.254;6.702;2023-08-01T11:40:54;7.03;;;2.30;;
9950;SDS011;24074;49.254;6.702;2023-08-01T11:43:21;3.83;;;1.70;;
9950;SDS011;24074;49.254;6.702;2023-08-01T11:45:54;2.57;;;1.73;;
9950;SDS011;24074;49.254;6.702;2023-08-01T11:48:21;2.53;;;1.63;;
9950;SDS011;24074;49.254;6.702;2023-08-01T11:50:48;3.90;;;1.67;;
9950;SDS011;24074;49.254;6.702;2023-08-01T11:53:17;3.27;;;1.93;;
9950;SDS011;24074;49.254;6.702;2023-08-01T11:55:46;5.70;;;1.93;;
9950;SDS011;24074;49.254;6.702;2023-08-01T11:58:13;4.60;;;2.10;;
9950;SDS011;24074;49.254;6.702;2023-08-01T12:00:39;3.10;;;1.70;;
9950;SDS011;24074;49.254;6.702;2023-08-01T12:03:07;3.37;;;1.67;;
9950;SDS011;24074;49.254;6.702;2023-08-01T12:05:38;2.57;;;1.57;;
9950;SDS011;24074;49.254;6.702;2023-08-01T12:08:11;1.60;;;1.50;;
9950;SDS011;24074;49.254;6.702;2023-08-01T12:10:38;3.07;;;1.53;;
9950;SDS011;24074;49.254;6.702;2023-08-01T12:13:18;2.33;;;1.40;;
9950;SDS011;24074;49.254;6.702;2023-08-01T12:15:46;2.73;;;1.60;;
9950;SDS011;24074;49.254;6.702;2023-08-01T12:18:19;2.17;;;1.50;;
9950;SDS011;24074;49.254;6.702;2023-08-01T12:20:48;2.03;;;1.70;;
9950;SDS011;24074;49.254;6.702;2023-08-01T12:23:14;3.58;;;1.75;;
9950;SDS011;24074;49.254;6.702;2023-08-01T12:25:40;2.67;;;1.60;;
9950;SDS011;24074;49.254;6.702;2023-08-01T12:28:05;1.87;;;1.67;;
9950;SDS011;24074;49.254;6.702;2023-08-01T12:30:31;2.20;;;1.57;;
9950;SDS011;24074;49.254;6.702;2023-08-01T12:32:56;2.50;;;1.60;;
9950;SDS011;24074;49.254;6.702;2023-08-01T12:35:22;1.83;;;1.40;;
9950;SDS011;24074;49.254;6.702;2023-08-01T12:37:48;3.00;;;1.57;;
9950;SDS011;24074;49.254;6.702;2023-08-01T12:40:13;2.30;;;1.70;;
9950;SDS011;24074;49.254;6.702;2023-08-01T12:42:39;2.10;;;1.60;;
9950;SDS011;24074;49.254;6.702;2023-08-01T12:45:04;2.40;;;1.50;;
9950;SDS011;24074;49.254;6.702;2023-08-01T12:47:30;3.13;;;1.50;;
9950;SDS011;24074;49.254;6.702;2023-08-01T12:49:56;3.53;;;1.63;;
9950;SDS011;24074;49.254;6.702;2023-08-01T12:52:22;2.77;;;1.63;;
9950;SDS011;24074;49.254;6.702;2023-08-01T12:54:51;2.80;;;1.63;;
9950;SDS011;24074;49.254;6.702;2023-08-01T12:57:17;3.30;;;1.70;;
9950;SDS011;24074;49.254;6.702;2023-08-01T12:59:43;3.03;;;1.50;;
9950;SDS011;24074;49.254;6.702;2023-08-01T13:02:09;3.77;;;1.80;;
9950;SDS011;24074;49.254;6.702;2023-08-01T13:04:37;2.93;;;1.70;;
9950;SDS011;24074;49.254;6.702;2023-08-01T13:07:03;3.13;;;1.70;;
9950;SDS011;24074;49.254;6.702;2023-08-01T13:09:29;2.10;;;1.50;;
9950;SDS011;24074;49.254;6.702;2023-08-01T13:11:55;3.30;;;1.70;;
9950;SDS011;24074;49.254;6.702;2023-08-01T13:14:21;2.60;;;1.70;;
9950;SDS011;24074;49.254;6.702;2023-08-01T13:16:48;2.13;;;1.50;;
9950;SDS011;24074;49.254;6.702;2023-08-01T13:19:13;3.20;;;1.80;;
9950;SDS011;24074;49.254;6.702;2023-08-01T13:21:39;3.27;;;1.90;;
9950;SDS011;24074;49.254;6.702;2023-08-01T13:24:04;3.97;;;2.03;;
9950;SDS011;24074;49.254;6.702;2023-08-01T13:26:30;4.37;;;1.90;;
9950;SDS011;24074;49.254;6.702;2023-08-01T13:28:56;2.20;;;1.70;;
9950;SDS011;24074;49.254;6.702;2023-08-01T13:31:23;3.07;;;1.97;;
9950;SDS011;24074;49.254;6.702;2023-08-01T13:33:48;3.27;;;1.90;;
9950;SDS011;24074;49.254;6.702;2023-08-01T13:36:14;2.77;;;1.70;;
9950;SDS011;24074;49.254;6.702;2023-08-01T13:38:40;4.10;;;1.80;;
9950;SDS011;24074;49.254;6.702;2023-08-01T13:41:05;1.90;;;1.70;;
9950;SDS011;24074;49.254;6.702;2023-08-01T13:43:31;3.80;;;1.53;;
9950;SDS011;24074;49.254;6.702;2023-08-01T13:45:56;3.00;;;1.97;;
9950;SDS011;24074;49.254;6.702;2023-08-01T13:48:22;3.03;;;1.90;;
9950;SDS011;24074;49.254;6.702;2023-08-01T13:50:47;2.43;;;1.70;;
9950;SDS011;24074;49.254;6.702;2023-08-01T13:53:13;3.53;;;1.80;;
9950;SDS011;24074;49.254;6.702;2023-08-01T13:55:39;2.70;;;1.53;;
9950;SDS011;24074;49.254;6.702;2023-08-01T13:58:05;2.37;;;1.90;;
9950;SDS011;24074;49.254;6.702;2023-08-01T14:00:31;2.63;;;2.03;;
9950;SDS011;24074;49.254;6.702;2023-08-01T14:02:57;2.73;;;1.50;;
9950;SDS011;24074;49.254;6.702;2023-08-01T14:05:26;3.03;;;1.93;;
9950;SDS011;24074;49.254;6.702;2023-08-01T14:07:52;2.23;;;1.67;;
9950;SDS011;24074;49.254;6.702;2023-08-01T14:10:18;4.07;;;1.77;;
9950;SDS011;24074;49.254;6.702;2023-08-01T14:12:44;4.00;;;1.73;;
9950;SDS011;24074;49.254;6.702;2023-08-01T14:15:09;3.70;;;1.83;;
9950;SDS011;24074;49.254;6.702;2023-08-01T14:17:35;2.40;;;1.90;;
9950;SDS011;24074;49.254;6.702;2023-08-01T14:20:02;3.23;;;1.70;;
9950;SDS011;24074;49.254;6.702;2023-08-01T14:22:30;3.53;;;1.83;;
9950;SDS011;24074;49.254;6.702;2023-08-01T14:24:56;5.23;;;2.20;;
9950;SDS011;24074;49.254;6.702;2023-08-01T14:27:21;3.87;;;2.00;;
9950;SDS011;24074;49.254;6.702;2023-08-01T14:29:47;2.87;;;1.80;;
9950;SDS011;24074;49.254;6.702;2023-08-01T14:32:13;3.83;;;2.20;;
9950;SDS011;24074;49.254;6.702;2023-08-01T14:34:42;3.67;;;2.20;;
9950;SDS011;24074;49.254;6.702;2023-08-01T14:37:08;4.97;;;2.13;;
9950;SDS011;24074;49.254;6.702;2023-08-01T14:39:34;4.77;;;2.17;;
9950;SDS011;24074;49.254;6.702;2023-08-01T14:41:59;3.40;;;2.10;;
9950;SDS011;24074;49.254;6.702;2023-08-01T14:44:25;5.57;;;2.13;;
9950;SDS011;24074;49.254;6.702;2023-08-01T14:46:51;3.93;;;1.93;;
9950;SDS011;24074;49.254;6.702;2023-08-01T14:49:19;4.70;;;2.20;;
9950;SDS011;24074;49.254;6.702;2023-08-01T14:51:46;3.20;;;1.87;;
9950;SDS011;24074;49.254;6.702;2023-08-01T14:54:12;3.37;;;1.90;;
9950;SDS011;24074;49.254;6.702;2023-08-01T14:56:38;3.03;;;1.70;;
9950;SDS011;24074;49.254;6.702;2023-08-01T14:59:03;3.83;;;1.80;;
9950;SDS011;24074;49.254;6.702;2023-08-01T15:01:29;3.37;;;2.00;;
9950;SDS011;24074;49.254;6.702;2023-08-01T15:03:55;2.77;;;1.87;;